createdAt,value
2022-12-18T00:00:02.092Z,0.00
2022-12-18T00:00:59.959Z,0.00
2022-12-18T00:01:59.677Z,0.00
2022-12-18T00:03:03.901Z,0.00
2022-12-18T00:04:20.491Z,0.00
2022-12-18T00:05:01.551Z,0.00
2022-12-18T00:06:06.597Z,0.00
2022-12-18T00:08:37.457Z,0.00
2022-12-18T00:09:39.387Z,0.00
2022-12-18T00:10:33.278Z,0.00
2022-12-18T00:11:31.856Z,0.00
2022-12-18T00:12:32.273Z,0.00
2022-12-18T00:13:34.307Z,0.00
2022-12-18T00:14:33.896Z,0.00
2022-12-18T00:15:33.027Z,0.00
2022-12-18T00:16:31.361Z,0.00
2022-12-18T00:17:32.835Z,0.00
2022-12-18T00:19:07.224Z,0.00
2022-12-18T00:19:34.419Z,0.00
2022-12-18T00:20:32.094Z,0.00
2022-12-18T00:21:33.234Z,0.00
2022-12-18T00:22:34.349Z,0.00
2022-12-18T00:23:37.292Z,0.00
2022-12-18T00:24:32.062Z,0.00
2022-12-18T00:25:33.815Z,0.00
2022-12-18T00:26:31.169Z,0.00
2022-12-18T00:27:31.099Z,0.00
2022-12-18T00:28:32.820Z,0.00
2022-12-18T00:29:32.697Z,0.00
2022-12-18T00:30:31.025Z,0.00
2022-12-18T00:31:55.490Z,0.00
2022-12-18T00:32:32.663Z,0.00
2022-12-18T00:33:33.682Z,0.00
2022-12-18T00:34:31.314Z,0.00
2022-12-18T00:35:33.567Z,0.00
2022-12-18T00:36:32.852Z,0.00
2022-12-18T00:37:37.057Z,0.00
2022-12-18T00:38:34.864Z,0.00
2022-12-18T00:39:32.836Z,0.00
2022-12-18T00:40:32.460Z,0.00
2022-12-18T00:41:33.862Z,0.00
2022-12-18T00:42:37.313Z,0.00
2022-12-18T00:43:32.334Z,0.00
2022-12-18T00:44:32.324Z,0.00
2022-12-18T00:45:33.651Z,0.00
2022-12-18T00:49:29.089Z,0.00
2022-12-18T00:50:29.397Z,0.00
2022-12-18T00:51:29.064Z,0.00
2022-12-18T00:52:27.599Z,0.00
2022-12-18T00:53:29.001Z,0.00
2022-12-18T00:54:28.424Z,0.00
2022-12-18T00:55:28.928Z,0.00
2022-12-18T00:56:32.544Z,0.00
2022-12-18T00:57:27.585Z,0.00
2022-12-18T00:58:25.356Z,0.00
2022-12-18T00:59:25.389Z,0.00
2022-12-18T01:00:25.259Z,0.00
2022-12-18T01:01:26.225Z,0.00
2022-12-18T01:02:25.348Z,0.00
2022-12-18T01:03:25.285Z,0.00
2022-12-18T01:04:25.217Z,0.00
2022-12-18T01:05:25.299Z,0.00
2022-12-18T01:06:25.744Z,0.00
2022-12-18T01:07:28.556Z,0.00
2022-12-18T01:08:28.742Z,0.00
2022-12-18T01:09:28.204Z,0.00
2022-12-18T01:10:25.340Z,0.00
2022-12-18T01:11:28.449Z,0.00
2022-12-18T01:12:28.220Z,0.00
2022-12-18T01:13:28.732Z,0.00
2022-12-18T01:14:32.800Z,0.00
2022-12-18T01:15:27.079Z,0.00
2022-12-18T01:16:32.594Z,0.00
2022-12-18T01:17:28.276Z,0.00
2022-12-18T01:18:26.878Z,0.00
2022-12-18T01:19:27.671Z,0.00
2022-12-18T01:20:25.775Z,0.00
2022-12-18T01:21:28.121Z,0.00
2022-12-18T01:22:30.250Z,0.00
2022-12-18T01:23:26.914Z,0.00
2022-12-18T01:24:29.326Z,0.00
2022-12-18T01:25:27.790Z,0.00
2022-12-18T01:26:26.276Z,0.00
2022-12-18T01:27:25.646Z,0.00
2022-12-18T01:28:26.412Z,0.00
2022-12-18T01:29:25.828Z,0.00
2022-12-18T01:30:27.599Z,0.00
2022-12-18T01:31:27.144Z,0.00
2022-12-18T01:32:25.969Z,0.00
2022-12-18T01:33:28.509Z,0.00
2022-12-18T01:34:27.370Z,0.00
2022-12-18T01:35:27.596Z,0.00
2022-12-18T01:36:27.224Z,0.00
2022-12-18T01:37:26.347Z,0.00
2022-12-18T01:38:25.966Z,0.00
2022-12-18T01:39:28.503Z,0.00
2022-12-18T01:40:29.678Z,0.00
2022-12-18T01:41:27.099Z,0.00
2022-12-18T01:42:28.593Z,0.00
2022-12-18T01:43:26.346Z,0.00
2022-12-18T01:44:28.349Z,0.00
2022-12-18T01:45:27.709Z,0.00
2022-12-18T01:46:27.720Z,0.00
2022-12-18T01:47:48.628Z,0.00
2022-12-18T01:48:27.463Z,0.00
2022-12-18T01:49:27.241Z,0.00
2022-12-18T01:50:27.045Z,0.00
2022-12-18T01:52:58.795Z,0.00
2022-12-18T01:53:51.887Z,0.00
2022-12-18T01:54:50.926Z,0.00
2022-12-18T01:55:51.669Z,0.00
2022-12-18T01:56:50.317Z,0.00
2022-12-18T01:57:53.644Z,0.00
2022-12-18T01:58:56.760Z,0.00
2022-12-18T01:59:52.154Z,0.00
2022-12-18T02:00:53.242Z,0.00
2022-12-18T02:01:55.876Z,0.00
2022-12-18T02:02:54.612Z,0.00
2022-12-18T02:03:50.967Z,0.00
2022-12-18T02:04:53.041Z,0.00
2022-12-18T02:06:24.780Z,0.00
2022-12-18T02:06:54.025Z,0.00
2022-12-18T02:07:51.330Z,0.00
2022-12-18T02:08:51.089Z,0.00
2022-12-18T02:09:50.537Z,0.00
2022-12-18T02:10:52.687Z,0.00
2022-12-18T02:11:51.238Z,0.00
2022-12-18T02:12:53.830Z,0.00
2022-12-18T02:13:55.047Z,0.00
2022-12-18T02:14:50.543Z,0.00
2022-12-18T02:15:50.496Z,0.00
2022-12-18T02:16:50.060Z,0.00
2022-12-18T02:17:49.669Z,0.00
2022-12-18T02:18:51.300Z,0.00
2022-12-18T02:19:51.704Z,0.00
2022-12-18T02:20:52.060Z,0.00
2022-12-18T02:21:51.606Z,0.00
2022-12-18T02:22:50.353Z,0.00
2022-12-18T02:23:51.041Z,0.00
2022-12-18T02:24:50.995Z,0.00
2022-12-18T02:25:51.746Z,0.00
2022-12-18T02:26:51.408Z,0.00
2022-12-18T02:27:53.548Z,0.00
2022-12-18T02:28:54.873Z,0.00
2022-12-18T02:29:54.308Z,0.00
2022-12-18T02:30:52.818Z,0.00
2022-12-18T02:31:54.482Z,0.00
2022-12-18T02:32:52.960Z,0.00
2022-12-18T02:33:52.657Z,0.00
2022-12-18T02:34:50.667Z,0.00
2022-12-18T02:35:53.575Z,0.00
2022-12-18T02:36:51.888Z,0.00
2022-12-18T02:37:51.247Z,0.00
2022-12-18T02:38:51.827Z,0.00
2022-12-18T02:39:51.565Z,0.00
2022-12-18T02:40:52.445Z,0.00
2022-12-18T02:41:55.491Z,0.00
2022-12-18T02:42:57.059Z,0.00
2022-12-18T02:43:51.857Z,0.00
2022-12-18T02:44:51.945Z,0.00
2022-12-18T02:45:52.142Z,0.00
2022-12-18T02:46:52.753Z,0.00
2022-12-18T02:47:52.560Z,0.00
2022-12-18T02:48:55.922Z,0.00
2022-12-18T02:49:57.204Z,0.00
2022-12-18T02:50:50.931Z,0.00
2022-12-18T02:53:59.279Z,0.00
2022-12-18T02:54:51.275Z,0.00
2022-12-18T02:55:51.355Z,0.00
2022-12-18T02:56:50.577Z,0.00
2022-12-18T02:57:48.833Z,0.00
2022-12-18T02:58:50.926Z,0.00
2022-12-18T02:59:49.058Z,0.00
2022-12-18T03:00:49.166Z,0.00
2022-12-18T03:01:48.829Z,0.00
2022-12-18T03:02:46.905Z,0.00
2022-12-18T03:04:09.603Z,0.00
2022-12-18T03:04:49.311Z,0.00
2022-12-18T03:05:48.030Z,0.00
2022-12-18T03:06:47.787Z,0.00
2022-12-18T03:08:08.299Z,0.00
2022-12-18T03:08:52.840Z,0.00
2022-12-18T03:09:46.311Z,0.00
2022-12-18T03:10:49.496Z,0.00
2022-12-18T03:11:52.372Z,0.00
2022-12-18T03:12:48.438Z,0.00
2022-12-18T03:13:50.605Z,0.00
2022-12-18T03:14:49.624Z,0.00
2022-12-18T03:15:49.077Z,0.00
2022-12-18T03:16:49.103Z,0.00
2022-12-18T03:17:49.954Z,0.00
2022-12-18T03:21:00.842Z,0.00
2022-12-18T03:21:41.230Z,0.00
2022-12-18T03:22:40.366Z,0.00
2022-12-18T03:23:39.018Z,0.00
2022-12-18T03:24:36.454Z,0.00
2022-12-18T03:25:38.945Z,0.00
2022-12-18T03:28:12.551Z,0.00
2022-12-18T03:29:07.589Z,0.00
2022-12-18T03:30:03.937Z,0.00
2022-12-18T03:31:06.076Z,0.00
2022-12-18T03:32:04.252Z,0.00
2022-12-18T03:33:04.152Z,0.00
2022-12-18T03:34:04.172Z,0.00
2022-12-18T03:35:04.012Z,0.00
2022-12-18T03:36:08.189Z,0.00
2022-12-18T03:37:08.144Z,0.00
2022-12-18T03:38:09.345Z,0.00
2022-12-18T03:39:03.221Z,0.00
2022-12-18T03:40:03.848Z,0.00
2022-12-18T03:41:05.050Z,0.00
2022-12-18T03:42:08.786Z,0.00
2022-12-18T03:43:04.267Z,0.00
2022-12-18T03:44:02.897Z,0.00
2022-12-18T03:45:02.372Z,0.00
2022-12-18T03:46:04.757Z,0.00
2022-12-18T03:47:04.253Z,0.00
2022-12-18T03:48:03.728Z,0.00
2022-12-18T03:49:03.315Z,0.00
2022-12-18T03:50:07.125Z,0.00
2022-12-18T03:51:04.864Z,0.00
2022-12-18T03:52:24.254Z,0.00
2022-12-18T03:53:03.482Z,0.00
2022-12-18T03:54:06.104Z,0.00
2022-12-18T03:55:02.643Z,0.00
2022-12-18T03:56:04.693Z,0.00
2022-12-18T03:57:02.761Z,0.00
2022-12-18T03:58:03.176Z,0.00
2022-12-18T03:59:04.654Z,0.00
2022-12-18T04:00:03.728Z,0.00
2022-12-18T04:01:03.607Z,0.00
2022-12-18T04:02:04.722Z,0.00
2022-12-18T04:04:49.368Z,0.00
2022-12-18T04:05:19.757Z,0.00
2022-12-18T04:06:18.272Z,0.00
2022-12-18T04:07:20.207Z,0.00
2022-12-18T04:08:19.197Z,0.00
2022-12-18T04:09:21.136Z,0.00
2022-12-18T04:10:24.133Z,0.00
2022-12-18T04:11:22.580Z,0.00
2022-12-18T04:12:23.119Z,0.00
2022-12-18T04:13:24.702Z,0.00
2022-12-18T04:14:22.099Z,0.00
2022-12-18T04:15:20.449Z,0.00
2022-12-18T04:16:20.601Z,0.00
2022-12-18T04:17:21.247Z,0.00
2022-12-18T04:18:19.383Z,0.00
2022-12-18T04:19:21.176Z,0.00
2022-12-18T04:20:20.861Z,0.00
2022-12-18T04:23:04.709Z,0.00
2022-12-18T04:23:54.003Z,0.00
2022-12-18T04:24:56.706Z,0.00
2022-12-18T04:25:53.323Z,0.00
2022-12-18T04:26:57.894Z,0.00
2022-12-18T04:27:54.230Z,0.00
2022-12-18T04:28:53.441Z,0.00
2022-12-18T04:29:53.004Z,0.00
2022-12-18T04:30:51.665Z,0.00
2022-12-18T04:31:51.348Z,0.00
2022-12-18T04:32:52.562Z,0.00
2022-12-18T04:33:51.906Z,0.00
2022-12-18T04:34:54.531Z,0.00
2022-12-18T04:35:53.068Z,0.00
2022-12-18T04:36:52.468Z,0.00
2022-12-18T04:37:52.859Z,0.00
2022-12-18T04:38:52.289Z,0.00
2022-12-18T04:39:54.834Z,0.00
2022-12-18T04:40:53.138Z,0.00
2022-12-18T04:41:52.233Z,0.00
2022-12-18T04:42:51.212Z,0.00
2022-12-18T04:43:51.709Z,0.00
2022-12-18T04:44:52.546Z,0.00
2022-12-18T04:45:51.530Z,0.00
2022-12-18T04:46:53.715Z,0.00
2022-12-18T04:47:54.813Z,0.00
2022-12-18T04:50:11.007Z,0.00
2022-12-18T04:51:12.182Z,0.00
2022-12-18T04:52:09.193Z,0.00
2022-12-18T04:53:15.263Z,0.00
2022-12-18T04:54:14.793Z,0.00
2022-12-18T04:55:10.189Z,0.00
2022-12-18T04:56:10.394Z,0.00
2022-12-18T04:57:17.640Z,0.00
2022-12-18T04:58:11.403Z,0.00
2022-12-18T04:59:35.611Z,0.00
2022-12-18T05:00:09.888Z,0.00
2022-12-18T05:01:13.495Z,0.00
2022-12-18T05:02:09.106Z,0.00
2022-12-18T05:03:09.198Z,0.00
2022-12-18T05:04:17.605Z,0.00
2022-12-18T05:05:09.264Z,0.00
2022-12-18T05:06:11.326Z,0.00
2022-12-18T05:07:12.067Z,0.00
2022-12-18T05:08:10.683Z,0.00
2022-12-18T05:09:12.560Z,0.00
2022-12-18T05:10:24.094Z,0.00
2022-12-18T05:11:34.798Z,0.00
2022-12-18T05:12:22.949Z,0.00
2022-12-18T05:13:10.172Z,0.00
2022-12-18T05:14:14.439Z,0.00
2022-12-18T05:16:03.170Z,0.00
2022-12-18T05:17:00.561Z,0.00
2022-12-18T05:17:56.922Z,0.00
2022-12-18T05:18:53.972Z,0.00
2022-12-18T05:19:53.567Z,0.00
2022-12-18T05:20:54.553Z,0.00
2022-12-18T05:22:23.881Z,0.00
2022-12-18T05:22:54.374Z,0.00
2022-12-18T05:23:54.062Z,0.00
2022-12-18T05:25:02.415Z,0.00
2022-12-18T05:25:55.635Z,0.00
2022-12-18T05:26:52.042Z,0.00
2022-12-18T05:27:52.279Z,0.00
2022-12-18T05:28:53.318Z,0.00
2022-12-18T05:29:52.548Z,0.00
2022-12-18T05:30:52.220Z,0.00
2022-12-18T05:31:52.179Z,0.00
2022-12-18T05:32:52.578Z,0.00
2022-12-18T05:33:52.399Z,0.00
2022-12-18T05:34:52.924Z,0.00
2022-12-18T05:35:53.703Z,0.00
2022-12-18T05:36:56.441Z,0.00
2022-12-18T05:37:54.107Z,0.00
2022-12-18T05:38:53.309Z,0.00
2022-12-18T05:39:52.771Z,0.00
2022-12-18T05:41:01.188Z,0.00
2022-12-18T05:41:52.171Z,0.00
2022-12-18T05:42:55.934Z,0.00
2022-12-18T05:43:52.256Z,0.00
2022-12-18T05:44:52.659Z,0.00
2022-12-18T05:45:52.668Z,0.00
2022-12-18T05:46:52.542Z,0.00
2022-12-18T05:47:52.079Z,0.00
2022-12-18T05:48:57.648Z,0.00
2022-12-18T05:49:51.801Z,0.00
2022-12-18T05:51:04.190Z,0.00
2022-12-18T05:51:52.164Z,0.00
2022-12-18T05:52:52.394Z,0.00
2022-12-18T05:53:53.309Z,0.00
2022-12-18T05:54:54.223Z,0.00
2022-12-18T05:55:52.092Z,0.00
2022-12-18T05:56:53.390Z,0.00
2022-12-18T05:57:52.032Z,0.00
2022-12-18T05:58:52.358Z,0.00
2022-12-18T05:59:52.016Z,0.00
2022-12-18T06:00:52.161Z,0.00
2022-12-18T06:01:52.189Z,0.00
2022-12-18T06:02:52.917Z,0.00
2022-12-18T06:03:53.416Z,0.00
2022-12-18T06:04:52.212Z,0.00
2022-12-18T06:05:52.416Z,0.00
2022-12-18T06:06:52.155Z,0.00
2022-12-18T06:07:51.927Z,0.00
2022-12-18T06:08:52.597Z,0.00
2022-12-18T06:09:52.771Z,0.00
2022-12-18T06:10:53.170Z,0.00
2022-12-18T06:11:53.088Z,0.00
2022-12-18T06:12:51.833Z,0.00
2022-12-18T06:13:57.633Z,0.00
2022-12-18T06:14:53.350Z,0.00
2022-12-18T06:15:51.756Z,0.00
2022-12-18T06:16:53.444Z,0.00
2022-12-18T06:17:53.458Z,0.00
2022-12-18T06:18:52.233Z,0.00
2022-12-18T06:19:52.535Z,0.00
2022-12-18T06:20:53.102Z,0.00
2022-12-18T06:21:51.542Z,0.00
2022-12-18T06:22:52.177Z,0.00
2022-12-18T06:23:51.745Z,0.00
2022-12-18T06:24:52.103Z,0.00
2022-12-18T06:25:52.707Z,0.00
2022-12-18T06:26:53.139Z,0.00
2022-12-18T06:27:53.309Z,0.00
2022-12-18T06:28:54.087Z,0.00
2022-12-18T06:31:31.707Z,0.00
2022-12-18T06:32:24.595Z,0.00
2022-12-18T06:33:26.185Z,0.00
2022-12-18T06:34:24.543Z,0.00
2022-12-18T06:35:24.787Z,0.00
2022-12-18T06:36:26.089Z,0.00
2022-12-18T06:37:24.332Z,0.00
2022-12-18T06:38:24.811Z,0.00
2022-12-18T06:39:30.074Z,0.00
2022-12-18T06:40:24.024Z,0.00
2022-12-18T06:41:25.067Z,0.00
2022-12-18T06:42:24.970Z,0.00
2022-12-18T06:43:25.512Z,0.00
2022-12-18T06:44:24.232Z,0.00
2022-12-18T06:45:24.171Z,0.00
2022-12-18T06:46:24.030Z,0.00
2022-12-18T06:47:25.853Z,4.00
2022-12-18T06:48:33.758Z,4.00
2022-12-18T06:49:27.317Z,0.00
2022-12-18T06:50:32.441Z,0.00
2022-12-18T06:51:26.605Z,4.00
2022-12-18T06:52:28.939Z,4.00
2022-12-18T06:53:26.410Z,0.00
2022-12-18T06:54:27.687Z,4.00
2022-12-18T06:55:25.173Z,8.00
2022-12-18T06:56:24.937Z,4.00
2022-12-18T06:57:23.389Z,4.00
2022-12-18T06:58:23.320Z,8.00
2022-12-18T06:59:23.300Z,8.00
2022-12-18T07:00:23.117Z,8.00
2022-12-18T07:01:23.573Z,12.00
2022-12-18T07:02:23.403Z,8.00
2022-12-18T07:03:23.034Z,12.00
2022-12-18T07:04:23.159Z,12.00
2022-12-18T07:05:23.360Z,20.00
2022-12-18T07:06:23.059Z,20.00
2022-12-18T07:07:23.177Z,20.00
2022-12-18T07:08:23.169Z,28.00
2022-12-18T07:09:23.189Z,32.00
2022-12-18T07:10:23.210Z,36.00
2022-12-18T07:11:23.111Z,40.00
2022-12-18T07:12:22.998Z,44.00
2022-12-18T07:13:23.092Z,52.00
2022-12-18T07:14:23.126Z,56.00
2022-12-18T07:15:23.176Z,64.00
2022-12-18T07:16:25.578Z,72.00
2022-12-18T07:17:23.027Z,80.00
2022-12-18T07:18:23.152Z,92.00
2022-12-18T07:19:23.330Z,100.00
2022-12-18T07:20:22.966Z,112.00
2022-12-18T07:21:23.363Z,120.00
2022-12-18T07:22:22.850Z,132.00
2022-12-18T07:23:23.084Z,148.00
2022-12-18T07:24:23.007Z,164.00
2022-12-18T07:25:22.874Z,176.00
2022-12-18T07:26:24.721Z,192.00
2022-12-18T07:27:23.274Z,212.00
2022-12-18T07:28:23.429Z,228.00
2022-12-18T07:29:23.223Z,248.00
2022-12-18T07:30:22.945Z,264.00
2022-12-18T07:31:23.141Z,288.00
2022-12-18T07:32:23.061Z,312.00
2022-12-18T07:33:22.819Z,336.00
2022-12-18T07:34:22.824Z,356.00
2022-12-18T07:35:25.239Z,380.00
2022-12-18T07:36:22.640Z,404.00
2022-12-18T07:37:22.672Z,428.00
2022-12-18T07:38:22.553Z,456.00
2022-12-18T07:39:22.580Z,480.00
2022-12-18T07:40:22.678Z,512.00
2022-12-18T07:41:22.697Z,540.00
2022-12-18T07:42:22.619Z,564.00
2022-12-18T07:43:22.598Z,592.00
2022-12-18T07:44:22.606Z,624.00
2022-12-18T07:45:22.429Z,652.00
2022-12-18T07:46:22.511Z,684.00
2022-12-18T07:47:22.610Z,716.00
2022-12-18T07:48:22.524Z,756.00
2022-12-18T07:49:22.540Z,792.00
2022-12-18T07:50:22.504Z,836.00
2022-12-18T07:51:22.469Z,876.00
2022-12-18T07:52:25.948Z,916.00
2022-12-18T07:53:23.016Z,956.00
2022-12-18T07:54:22.479Z,996.00
2022-12-18T07:55:22.494Z,1040.00
2022-12-18T07:56:27.552Z,1084.00
2022-12-18T07:57:49.028Z,1128.00
2022-12-18T07:58:23.443Z,1164.00
2022-12-18T07:59:22.504Z,1204.00
2022-12-18T08:00:22.507Z,1240.00
2022-12-18T08:01:23.618Z,1276.00
2022-12-18T08:02:24.628Z,1304.00
2022-12-18T08:03:23.486Z,1324.00
2022-12-18T08:04:22.532Z,1356.00
2022-12-18T08:05:22.678Z,1380.00
2022-12-18T08:06:24.074Z,1404.00
2022-12-18T08:07:22.371Z,1424.00
2022-12-18T08:08:22.361Z,1444.00
2022-12-18T08:09:22.367Z,1464.00
2022-12-18T08:10:22.456Z,1480.00
2022-12-18T08:11:28.725Z,1508.00
2022-12-18T08:16:50.601Z,1648.00
2022-12-18T08:17:42.422Z,1680.00
2022-12-18T08:18:40.874Z,1708.00
2022-12-18T08:19:42.090Z,1736.00
2022-12-18T08:20:42.562Z,1764.00
2022-12-18T08:21:40.246Z,1788.00
2022-12-18T08:22:38.969Z,1804.00
2022-12-18T08:23:42.710Z,1820.00
2022-12-18T08:24:40.228Z,1832.00
2022-12-18T08:25:38.868Z,1852.00
2022-12-18T08:26:38.499Z,1868.00
2022-12-18T08:27:38.916Z,1876.00
2022-12-18T08:28:38.409Z,1896.00
2022-12-18T08:29:38.642Z,1908.00
2022-12-18T08:30:39.192Z,1940.00
2022-12-18T08:31:39.678Z,1964.00
2022-12-18T08:32:38.097Z,1992.00
2022-12-18T08:33:39.981Z,2016.00
2022-12-18T08:34:37.948Z,2044.00
2022-12-18T08:35:44.068Z,2096.00
2022-12-18T08:36:39.672Z,2140.00
2022-12-18T08:37:38.052Z,2164.00
2022-12-18T08:38:43.352Z,2172.00
2022-12-18T08:39:39.585Z,2188.00
2022-12-18T08:40:38.323Z,2200.00
2022-12-18T08:41:40.243Z,2212.00
2022-12-18T08:42:38.504Z,2232.00
2022-12-18T08:43:40.497Z,2252.00
2022-12-18T08:44:38.701Z,2256.00
2022-12-18T08:45:38.263Z,2264.00
2022-12-18T08:46:43.533Z,2276.00
2022-12-18T08:47:38.919Z,2300.00
2022-12-18T08:48:38.215Z,2304.00
2022-12-18T08:49:37.833Z,2292.00
2022-12-18T08:50:38.735Z,2312.00
2022-12-18T08:51:39.084Z,2336.00
2022-12-18T08:52:38.019Z,2364.00
2022-12-18T08:53:39.130Z,2388.00
2022-12-18T08:54:38.330Z,2404.00
2022-12-18T08:55:38.883Z,2420.00
2022-12-18T08:56:38.697Z,2412.00
2022-12-18T08:57:38.089Z,2424.00
2022-12-18T08:58:38.958Z,2456.00
2022-12-18T08:59:38.893Z,2500.00
2022-12-18T09:00:38.570Z,2524.00
2022-12-18T09:01:39.157Z,2560.00
2022-12-18T09:02:39.183Z,2592.00
2022-12-18T09:03:40.148Z,2616.00
2022-12-18T09:04:38.219Z,2624.00
2022-12-18T09:05:39.505Z,2612.00
2022-12-18T09:06:41.336Z,2604.00
2022-12-18T09:07:38.639Z,2604.00
2022-12-18T09:08:38.300Z,2616.00
2022-12-18T09:09:38.530Z,2608.00
2022-12-18T09:10:43.191Z,2604.00
2022-12-18T09:11:41.544Z,2604.00
2022-12-18T09:12:38.774Z,2620.00
2022-12-18T09:13:39.849Z,2632.00
2022-12-18T09:14:39.028Z,2636.00
2022-12-18T09:15:38.680Z,2648.00
2022-12-18T09:16:37.876Z,2660.00
2022-12-18T09:17:38.516Z,2672.00
2022-12-18T09:18:37.959Z,2688.00
2022-12-18T09:19:54.132Z,2708.00
2022-12-18T09:20:37.123Z,2728.00
2022-12-18T09:21:37.719Z,2744.00
2022-12-18T09:22:38.389Z,2756.00
2022-12-18T09:23:41.108Z,2780.00
2022-12-18T09:24:37.389Z,2808.00
2022-12-18T09:25:38.396Z,2828.00
2022-12-18T09:26:37.018Z,2856.00
2022-12-18T09:27:37.234Z,2888.00
2022-12-18T09:28:38.897Z,2928.00
2022-12-18T09:29:36.865Z,2968.00
2022-12-18T09:30:38.104Z,3004.00
2022-12-18T09:31:37.150Z,3068.00
2022-12-18T09:32:38.786Z,3108.00
2022-12-18T09:33:38.794Z,3120.00
2022-12-18T09:34:38.920Z,3128.00
2022-12-18T09:35:39.268Z,3132.00
2022-12-18T09:36:37.348Z,3116.00
2022-12-18T09:37:38.649Z,3076.00
2022-12-18T09:38:37.568Z,3092.00
2022-12-18T09:39:37.888Z,3120.00
2022-12-18T09:40:37.311Z,3136.00
2022-12-18T09:41:38.900Z,3240.00
2022-12-18T09:42:37.615Z,3388.00
2022-12-18T09:43:37.517Z,3504.00
2022-12-18T09:44:44.725Z,3684.00
2022-12-18T09:45:37.946Z,3876.00
2022-12-18T09:46:38.299Z,4068.00
2022-12-18T09:47:40.200Z,4220.00
2022-12-18T09:48:39.075Z,4380.00
2022-12-18T09:49:37.792Z,4520.00
2022-12-18T09:50:38.392Z,4664.00
2022-12-18T09:51:36.587Z,4792.00
2022-12-18T09:52:37.113Z,4904.00
2022-12-18T09:53:37.021Z,4956.00
2022-12-18T09:54:39.221Z,4900.00
2022-12-18T09:55:37.803Z,4812.00
2022-12-18T09:56:36.893Z,4692.00
2022-12-18T09:57:36.881Z,4520.00
2022-12-18T09:58:38.189Z,4320.00
2022-12-18T09:59:37.966Z,4072.00
2022-12-18T10:00:36.778Z,3804.00
2022-12-18T10:01:43.386Z,3648.00
2022-12-18T10:02:38.589Z,3604.00
2022-12-18T10:03:37.529Z,3564.00
2022-12-18T10:04:37.997Z,3548.00
2022-12-18T10:05:37.922Z,3584.00
2022-12-18T10:06:36.703Z,3652.00
2022-12-18T10:07:36.429Z,3832.00
2022-12-18T10:08:37.784Z,4092.00
2022-12-18T10:09:36.672Z,4336.00
2022-12-18T10:10:37.099Z,4604.00
2022-12-18T10:11:37.898Z,4860.00
2022-12-18T10:12:37.151Z,5040.00
2022-12-18T10:13:36.539Z,5260.00
2022-12-18T10:14:37.717Z,5396.00
2022-12-18T10:15:38.367Z,5488.00
2022-12-18T10:16:37.707Z,5392.00
2022-12-18T10:17:36.556Z,5352.00
2022-12-18T10:18:38.829Z,5156.00
2022-12-18T10:19:38.170Z,4928.00
2022-12-18T10:20:38.006Z,4828.00
2022-12-18T10:21:36.263Z,4740.00
2022-12-18T10:22:36.563Z,4712.00
2022-12-18T10:23:37.427Z,4748.00
2022-12-18T10:24:37.910Z,4808.00
2022-12-18T10:25:39.143Z,4936.00
2022-12-18T10:26:41.753Z,5000.00
2022-12-18T10:27:38.133Z,5356.00
2022-12-18T10:28:39.330Z,5380.00
2022-12-18T10:29:37.168Z,5452.00
2022-12-18T10:30:39.325Z,5456.00
2022-12-18T10:31:37.355Z,5348.00
2022-12-18T10:32:36.824Z,5392.00
2022-12-18T10:33:36.728Z,5320.00
2022-12-18T10:34:36.960Z,5380.00
2022-12-18T10:35:37.186Z,5320.00
2022-12-18T10:36:36.425Z,5168.00
2022-12-18T10:37:36.680Z,5072.00
2022-12-18T10:38:37.558Z,4948.00
2022-12-18T10:39:37.682Z,4668.00
2022-12-18T10:40:37.066Z,4640.00
2022-12-18T10:41:36.235Z,4516.00
2022-12-18T10:42:37.403Z,4488.00
2022-12-18T10:43:35.996Z,4412.00
2022-12-18T10:44:37.170Z,4564.00
2022-12-18T10:45:37.387Z,4684.00
2022-12-18T10:46:36.696Z,4672.00
2022-12-18T10:47:36.455Z,4888.00
2022-12-18T10:48:37.047Z,5236.00
2022-12-18T10:49:37.950Z,5584.00
2022-12-18T10:51:09.164Z,5824.00
2022-12-18T10:51:38.512Z,6016.00
2022-12-18T10:52:39.607Z,5984.00
2022-12-18T10:53:37.754Z,5892.00
2022-12-18T10:54:36.885Z,5728.00
2022-12-18T10:55:36.786Z,5696.00
2022-12-18T10:56:38.021Z,5776.00
2022-12-18T10:57:41.811Z,5868.00
2022-12-18T10:58:41.102Z,5888.00
2022-12-18T10:59:36.567Z,5864.00
2022-12-18T11:00:36.623Z,5824.00
2022-12-18T11:01:36.604Z,5888.00
2022-12-18T11:02:37.532Z,5928.00
2022-12-18T11:03:36.450Z,5940.00
2022-12-18T11:04:36.204Z,6064.00
2022-12-18T11:05:37.071Z,6080.00
2022-12-18T11:06:37.140Z,6068.00
2022-12-18T11:07:41.735Z,6020.00
2022-12-18T11:08:36.000Z,5856.00
2022-12-18T11:09:35.759Z,5808.00
2022-12-18T11:10:37.229Z,5772.00
2022-12-18T11:11:36.674Z,5688.00
2022-12-18T11:12:36.943Z,5596.00
2022-12-18T11:13:37.779Z,5532.00
2022-12-18T11:14:35.857Z,5540.00
2022-12-18T11:15:36.583Z,5404.00
2022-12-18T11:16:36.075Z,5260.00
2022-12-18T11:17:35.661Z,5184.00
2022-12-18T11:18:36.083Z,5348.00
2022-12-18T11:19:35.811Z,5520.00
2022-12-18T11:20:35.546Z,5628.00
2022-12-18T11:21:37.128Z,5548.00
2022-12-18T11:22:36.697Z,5496.00
2022-12-18T11:23:35.918Z,5576.00
2022-12-18T11:24:35.667Z,5700.00
2022-12-18T11:25:36.503Z,5688.00
2022-12-18T11:26:36.025Z,5700.00
2022-12-18T11:27:36.239Z,5676.00
2022-12-18T11:28:37.262Z,5684.00
2022-12-18T11:29:35.720Z,5648.00
2022-12-18T11:30:35.859Z,5676.00
2022-12-18T11:31:36.586Z,5740.00
2022-12-18T11:32:40.791Z,5844.00
2022-12-18T11:33:37.053Z,5856.00
2022-12-18T11:34:37.255Z,5784.00
2022-12-18T11:35:36.604Z,5748.00
2022-12-18T11:36:56.644Z,5756.00
2022-12-18T11:37:35.757Z,5816.00
2022-12-18T11:38:58.223Z,5848.00
2022-12-18T11:39:36.673Z,5932.00
2022-12-18T11:40:40.716Z,6148.00
2022-12-18T11:41:36.209Z,6264.00
2022-12-18T11:42:38.227Z,6248.00
2022-12-18T11:43:54.172Z,6124.00
2022-12-18T11:44:41.267Z,5944.00
2022-12-18T11:47:43.113Z,5636.00
2022-12-18T11:48:18.746Z,5648.00
2022-12-18T11:49:20.461Z,5728.00
2022-12-18T11:50:18.723Z,5840.00
2022-12-18T11:51:19.482Z,6072.00
2022-12-18T11:52:21.254Z,6400.00
2022-12-18T11:53:20.820Z,6668.00
2022-12-18T11:54:19.975Z,7028.00
2022-12-18T11:55:18.471Z,7312.00
2022-12-18T11:56:19.322Z,7444.00
2022-12-18T11:57:18.262Z,7420.00
2022-12-18T11:58:22.527Z,7356.00
2022-12-18T11:59:20.273Z,7240.00
2022-12-18T12:00:18.832Z,7052.00
2022-12-18T12:01:18.610Z,6732.00
2022-12-18T12:02:19.994Z,6440.00
2022-12-18T12:03:26.221Z,6140.00
2022-12-18T12:04:19.510Z,6056.00
2022-12-18T12:05:18.956Z,5916.00
2022-12-18T12:06:19.006Z,5720.00
2022-12-18T12:07:17.751Z,5568.00
2022-12-18T12:08:19.180Z,5536.00
2022-12-18T12:09:18.756Z,5524.00
2022-12-18T12:10:18.878Z,5600.00
2022-12-18T12:11:21.133Z,5680.00
2022-12-18T12:12:19.366Z,5804.00
2022-12-18T12:13:18.177Z,5988.00
2022-12-18T12:14:18.175Z,6240.00
2022-12-18T12:15:18.161Z,6452.00
2022-12-18T12:16:19.300Z,6484.00
2022-12-18T12:17:18.451Z,6504.00
2022-12-18T12:18:21.655Z,6528.00
2022-12-18T12:19:18.991Z,6524.00
2022-12-18T12:20:18.905Z,6492.00
2022-12-18T12:21:19.515Z,6392.00
2022-12-18T12:22:19.152Z,6344.00
2022-12-18T12:23:21.489Z,6252.00
2022-12-18T12:24:19.760Z,6100.00
2022-12-18T12:25:17.718Z,5960.00
2022-12-18T12:26:18.983Z,5800.00
2022-12-18T12:27:18.746Z,5724.00
2022-12-18T12:28:40.385Z,5736.00
2022-12-18T12:29:21.302Z,5876.00
2022-12-18T12:30:17.872Z,6092.00
2022-12-18T12:31:17.598Z,6332.00
2022-12-18T12:32:18.379Z,6568.00
2022-12-18T12:33:18.162Z,6800.00
2022-12-18T12:34:18.867Z,6992.00
2022-12-18T12:35:18.385Z,7124.00
2022-12-18T12:36:20.029Z,7212.00
2022-12-18T12:37:18.430Z,7256.00
2022-12-18T12:38:18.066Z,7296.00
2022-12-18T12:39:19.546Z,7276.00
2022-12-18T12:40:49.150Z,7188.00
2022-12-18T12:41:19.925Z,7104.00
2022-12-18T12:42:17.507Z,7020.00
2022-12-18T12:43:20.284Z,6900.00
2022-12-18T12:44:20.795Z,6764.00
2022-12-18T12:45:17.506Z,6540.00
2022-12-18T12:46:19.785Z,6308.00
2022-12-18T12:47:17.689Z,6176.00
2022-12-18T12:48:18.546Z,6096.00
2022-12-18T12:49:19.871Z,6052.00
2022-12-18T12:50:22.529Z,6016.00
2022-12-18T12:51:18.658Z,6196.00
2022-12-18T12:52:17.445Z,6280.00
2022-12-18T12:53:18.101Z,6272.00
2022-12-18T12:54:19.063Z,6152.00
2022-12-18T12:55:17.484Z,6432.00
2022-12-18T12:56:17.658Z,6836.00
2022-12-18T12:57:24.324Z,7072.00
2022-12-18T12:58:17.789Z,7224.00
2022-12-18T12:59:19.915Z,7228.00
2022-12-18T13:00:18.102Z,7256.00
2022-12-18T13:01:23.158Z,7304.00
2022-12-18T13:02:20.620Z,7324.00
2022-12-18T13:03:19.111Z,7260.00
2022-12-18T13:04:16.992Z,7124.00
2022-12-18T13:05:17.408Z,7016.00
2022-12-18T13:06:18.364Z,6920.00
2022-12-18T13:07:18.680Z,6796.00